sensor_id;sensor_type;location;lat;lon;timestamp;temperature;humidity
8856;DHT22;4464;50.882;4.730;2023-03-14T00:01:06;11.80;99.90
8856;DHT22;4464;50.882;4.730;2023-03-14T00:03:37;11.80;99.90
8856;DHT22;4464;50.882;4.730;2023-03-14T00:06:04;11.80;99.90
8856;DHT22;4464;50.882;4.730;2023-03-14T00:08:32;11.90;99.90
8856;DHT22;4464;50.882;4.730;2023-03-14T00:11:04;11.80;99.90
8856;DHT22;4464;50.882;4.730;2023-03-14T00:13:30;11.90;99.90
8856;DHT22;4464;50.882;4.730;2023-03-14T00:16:04;11.80;99.90
8856;DHT22;4464;50.882;4.730;2023-03-14T00:18:31;11.80;99.90
8856;DHT22;4464;50.882;4.730;2023-03-14T00:20:58;11.80;99.90
8856;DHT22;4464;50.882;4.730;2023-03-14T00:23:24;11.80;99.90
8856;DHT22;4464;50.882;4.730;2023-03-14T00:25:50;11.70;99.90
8856;DHT22;4464;50.882;4.730;2023-03-14T00:28:16;11.70;99.90
8856;DHT22;4464;50.882;4.730;2023-03-14T00:30:42;11.70;99.90
8856;DHT22;4464;50.882;4.730;2023-03-14T00:33:08;11.60;99.90
8856;DHT22;4464;50.882;4.730;2023-03-14T00:35:33;11.60;99.90
8856;DHT22;4464;50.882;4.730;2023-03-14T00:38:02;11.60;99.90
8856;DHT22;4464;50.882;4.730;2023-03-14T00:40:29;11.50;99.90
8856;DHT22;4464;50.882;4.730;2023-03-14T00:43:00;11.50;99.90
8856;DHT22;4464;50.882;4.730;2023-03-14T00:45:28;11.50;99.90
8856;DHT22;4464;50.882;4.730;2023-03-14T00:47:53;11.50;99.90
8856;DHT22;4464;50.882;4.730;2023-03-14T00:50:21;11.40;99.90
8856;DHT22;4464;50.882;4.730;2023-03-14T00:52:47;11.40;99.90
8856;DHT22;4464;50.882;4.730;2023-03-14T00:55:14;11.40;99.90
8856;DHT22;4464;50.882;4.730;2023-03-14T00:57:40;11.40;99.90
8856;DHT22;4464;50.882;4.730;2023-03-14T01:00:09;11.40;99.90
8856;DHT22;4464;50.882;4.730;2023-03-14T01:02:37;11.40;99.90
8856;DHT22;4464;50.882;4.730;2023-03-14T01:05:03;11.40;99.90
8856;DHT22;4464;50.882;4.730;2023-03-14T01:07:29;11.40;99.90
8856;DHT22;4464;50.882;4.730;2023-03-14T01:09:55;11.50;99.90
8856;DHT22;4464;50.882;4.730;2023-03-14T01:12:21;11.50;99.90
8856;DHT22;4464;50.882;4.730;2023-03-14T01:14:47;11.50;99.90
8856;DHT22;4464;50.882;4.730;2023-03-14T01:17:12;11.50;99.90
8856;DHT22;4464;50.882;4.730;2023-03-14T01:19:38;11.40;99.90
8856;DHT22;4464;50.882;4.730;2023-03-14T01:22:06;11.40;99.90
8856;DHT22;4464;50.882;4.730;2023-03-14T01:24:37;11.40;99.90
8856;DHT22;4464;50.882;4.730;2023-03-14T01:27:03;11.40;99.90
8856;DHT22;4464;50.882;4.730;2023-03-14T01:29:28;11.40;99.90
8856;DHT22;4464;50.882;4.730;2023-03-14T01:31:59;11.40;99.90
8856;DHT22;4464;50.882;4.730;2023-03-14T01:34:27;11.40;99.90
8856;DHT22;4464;50.882;4.730;2023-03-14T01:36:53;11.30;99.90
8856;DHT22;4464;50.882;4.730;2023-03-14T01:39:18;11.20;99.90
8856;DHT22;4464;50.882;4.730;2023-03-14T01:41:44;11.20;99.90
8856;DHT22;4464;50.882;4.730;2023-03-14T01:44:11;11.10;99.90
8856;DHT22;4464;50.882;4.730;2023-03-14T01:46:46;11.10;99.90
8856;DHT22;4464;50.882;4.730;2023-03-14T01:49:26;11.00;99.90
8856;DHT22;4464;50.882;4.730;2023-03-14T01:51:58;11.00;99.90
8856;DHT22;4464;50.882;4.730;2023-03-14T01:54:44;11.00;99.90
8856;DHT22;4464;50.882;4.730;2023-03-14T01:57:19;10.90;99.90
8856;DHT22;4464;50.882;4.730;2023-03-14T02:00:04;10.90;99.90
8856;DHT22;4464;50.882;4.730;2023-03-14T02:02:38;10.90;99.90
8856;DHT22;4464;50.882;4.730;2023-03-14T02:05:08;10.90;99.90
8856;DHT22;4464;50.882;4.730;2023-03-14T02:10:11;10.90;99.90
8856;DHT22;4464;50.882;4.730;2023-03-14T02:12:37;10.80;99.90
8856;DHT22;4464;50.882;4.730;2023-03-14T02:15:11;10.60;99.90
8856;DHT22;4464;50.882;4.730;2023-03-14T02:17:37;10.40;99.90
8856;DHT22;4464;50.882;4.730;2023-03-14T02:22:40;10.10;99.90
8856;DHT22;4464;50.882;4.730;2023-03-14T02:25:21;10.00;99.90
8856;DHT22;4464;50.882;4.730;2023-03-14T02:27:50;9.80;99.90
8856;DHT22;4464;50.882;4.730;2023-03-14T02:30:17;9.80;99.90
8856;DHT22;4464;50.882;4.730;2023-03-14T02:32:47;9.70;99.90
8856;DHT22;4464;50.882;4.730;2023-03-14T02:35:21;9.60;99.90
8856;DHT22;4464;50.882;4.730;2023-03-14T02:37:51;9.60;99.90
8856;DHT22;4464;50.882;4.730;2023-03-14T02:40:18;9.60;99.90
8856;DHT22;4464;50.882;4.730;2023-03-14T02:42:44;9.60;99.90
8856;DHT22;4464;50.882;4.730;2023-03-14T02:47:39;9.40;99.90
8856;DHT22;4464;50.882;4.730;2023-03-14T02:50:13;9.40;99.90
8856;DHT22;4464;50.882;4.730;2023-03-14T02:52:40;9.40;99.90
8856;DHT22;4464;50.882;4.730;2023-03-14T02:55:08;9.40;99.90
8856;DHT22;4464;50.882;4.730;2023-03-14T02:57:37;9.40;99.90
8856;DHT22;4464;50.882;4.730;2023-03-14T03:00:03;9.40;99.90
8856;DHT22;4464;50.882;4.730;2023-03-14T03:02:33;9.40;99.90
8856;DHT22;4464;50.882;4.730;2023-03-14T03:04:58;9.40;99.90
8856;DHT22;4464;50.882;4.730;2023-03-14T03:07:26;9.40;99.90
8856;DHT22;4464;50.882;4.730;2023-03-14T03:09:55;9.40;99.90
8856;DHT22;4464;50.882;4.730;2023-03-14T03:12:20;9.30;99.90
8856;DHT22;4464;50.882;4.730;2023-03-14T03:14:46;9.30;99.90
8856;DHT22;4464;50.882;4.730;2023-03-14T03:17:12;9.40;99.90
8856;DHT22;4464;50.882;4.730;2023-03-14T03:19:38;9.40;99.90
8856;DHT22;4464;50.882;4.730;2023-03-14T03:22:06;9.50;99.90
8856;DHT22;4464;50.882;4.730;2023-03-14T03:24:32;9.50;99.90
8856;DHT22;4464;50.882;4.730;2023-03-14T03:26:59;9.50;99.90
8856;DHT22;4464;50.882;4.730;2023-03-14T03:29:25;9.60;99.90
8856;DHT22;4464;50.882;4.730;2023-03-14T03:31:53;9.60;99.90
8856;DHT22;4464;50.882;4.730;2023-03-14T03:34:19;9.60;99.90
8856;DHT22;4464;50.882;4.730;2023-03-14T03:36:47;9.60;99.90
8856;DHT22;4464;50.882;4.730;2023-03-14T03:39:13;9.60;99.90
8856;DHT22;4464;50.882;4.730;2023-03-14T03:41:39;9.60;99.90
8856;DHT22;4464;50.882;4.730;2023-03-14T03:44:04;9.60;99.90
8856;DHT22;4464;50.882;4.730;2023-03-14T03:46:33;9.60;99.90
8856;DHT22;4464;50.882;4.730;2023-03-14T03:49:01;9.60;99.90
8856;DHT22;4464;50.882;4.730;2023-03-14T03:51:30;9.70;99.90
8856;DHT22;4464;50.882;4.730;2023-03-14T03:53:58;9.70;99.90
8856;DHT22;4464;50.882;4.730;2023-03-14T03:56:24;9.70;99.90
8856;DHT22;4464;50.882;4.730;2023-03-14T03:58:50;9.70;99.90
8856;DHT22;4464;50.882;4.730;2023-03-14T04:01:16;9.70;99.90
8856;DHT22;4464;50.882;4.730;2023-03-14T04:03:41;9.70;99.90
8856;DHT22;4464;50.882;4.730;2023-03-14T04:06:12;9.60;99.90
8856;DHT22;4464;50.882;4.730;2023-03-14T04:08:39;9.70;99.90
8856;DHT22;4464;50.882;4.730;2023-03-14T04:11:07;9.70;99.90
8856;DHT22;4464;50.882;4.730;2023-03-14T04:13:33;9.70;99.90
8856;DHT22;4464;50.882;4.730;2023-03-14T04:15:59;9.70;99.90
8856;DHT22;4464;50.882;4.730;2023-03-14T04:18:27;9.70;99.90
8856;DHT22;4464;50.882;4.730;2023-03-14T04:20:54;9.70;99.90
8856;DHT22;4464;50.882;4.730;2023-03-14T04:23:21;9.60;99.90
8856;DHT22;4464;50.882;4.730;2023-03-14T04:25:50;9.60;99.90
8856;DHT22;4464;50.882;4.730;2023-03-14T04:28:16;9.70;99.90
8856;DHT22;4464;50.882;4.730;2023-03-14T04:30:42;9.70;99.90
8856;DHT22;4464;50.882;4.730;2023-03-14T04:33:08;9.70;99.90
8856;DHT22;4464;50.882;4.730;2023-03-14T04:35:38;9.70;99.90
8856;DHT22;4464;50.882;4.730;2023-03-14T04:38:04;9.80;99.90
8856;DHT22;4464;50.882;4.730;2023-03-14T04:40:30;9.70;99.90
8856;DHT22;4464;50.882;4.730;2023-03-14T04:42:58;9.80;99.90
8856;DHT22;4464;50.882;4.730;2023-03-14T04:45:26;9.70;99.90
8856;DHT22;4464;50.882;4.730;2023-03-14T04:47:52;9.70;99.90
8856;DHT22;4464;50.882;4.730;2023-03-14T04:50:20;9.80;99.90
8856;DHT22;4464;50.882;4.730;2023-03-14T04:52:50;9.80;99.90
8856;DHT22;4464;50.882;4.730;2023-03-14T04:55:20;9.80;99.90
8856;DHT22;4464;50.882;4.730;2023-03-14T04:57:46;9.80;99.90
8856;DHT22;4464;50.882;4.730;2023-03-14T05:00:12;9.80;99.90
8856;DHT22;4464;50.882;4.730;2023-03-14T05:02:38;9.80;99.90
8856;DHT22;4464;50.882;4.730;2023-03-14T05:05:06;9.80;99.90
8856;DHT22;4464;50.882;4.730;2023-03-14T05:07:32;9.80;99.90
8856;DHT22;4464;50.882;4.730;2023-03-14T05:09:58;9.80;99.90
8856;DHT22;4464;50.882;4.730;2023-03-14T05:12:26;9.90;99.90
8856;DHT22;4464;50.882;4.730;2023-03-14T05:14:54;9.90;99.90
8856;DHT22;4464;50.882;4.730;2023-03-14T05:17:20;9.80;99.90
8856;DHT22;4464;50.882;4.730;2023-03-14T05:19:48;9.80;99.90
8856;DHT22;4464;50.882;4.730;2023-03-14T05:22:16;9.90;99.90
8856;DHT22;4464;50.882;4.730;2023-03-14T05:24:42;9.80;99.90
8856;DHT22;4464;50.882;4.730;2023-03-14T05:27:13;9.90;99.90
8856;DHT22;4464;50.882;4.730;2023-03-14T05:29:41;9.80;99.90
8856;DHT22;4464;50.882;4.730;2023-03-14T05:32:07;9.80;99.90
8856;DHT22;4464;50.882;4.730;2023-03-14T05:34:33;9.80;99.90
8856;DHT22;4464;50.882;4.730;2023-03-14T05:36:59;9.90;99.90
8856;DHT22;4464;50.882;4.730;2023-03-14T05:39:24;9.90;99.90
8856;DHT22;4464;50.882;4.730;2023-03-14T05:41:50;9.90;99.90
8856;DHT22;4464;50.882;4.730;2023-03-14T05:44:16;9.90;99.90
8856;DHT22;4464;50.882;4.730;2023-03-14T05:46:45;9.90;99.90
8856;DHT22;4464;50.882;4.730;2023-03-14T05:49:11;9.90;99.90
8856;DHT22;4464;50.882;4.730;2023-03-14T05:51:36;9.90;99.90
8856;DHT22;4464;50.882;4.730;2023-03-14T05:54:02;9.90;99.90
8856;DHT22;4464;50.882;4.730;2023-03-14T05:56:28;9.90;99.90
8856;DHT22;4464;50.882;4.730;2023-03-14T05:58:53;9.90;99.90
8856;DHT22;4464;50.882;4.730;2023-03-14T06:01:19;9.90;99.90
8856;DHT22;4464;50.882;4.730;2023-03-14T06:03:45;10.00;99.90
8856;DHT22;4464;50.882;4.730;2023-03-14T06:06:11;9.90;99.90
8856;DHT22;4464;50.882;4.730;2023-03-14T06:08:36;10.00;99.90
8856;DHT22;4464;50.882;4.730;2023-03-14T06:11:05;9.90;99.90
8856;DHT22;4464;50.882;4.730;2023-03-14T06:13:33;9.90;99.90
8856;DHT22;4464;50.882;4.730;2023-03-14T06:15:58;9.90;99.90
8856;DHT22;4464;50.882;4.730;2023-03-14T06:18:24;10.00;99.90
8856;DHT22;4464;50.882;4.730;2023-03-14T06:20:53;9.90;99.90
8856;DHT22;4464;50.882;4.730;2023-03-14T06:23:20;10.00;99.90
8856;DHT22;4464;50.882;4.730;2023-03-14T06:25:46;10.00;99.90
8856;DHT22;4464;50.882;4.730;2023-03-14T06:28:11;10.00;99.90
8856;DHT22;4464;50.882;4.730;2023-03-14T06:30:37;10.00;99.90
8856;DHT22;4464;50.882;4.730;2023-03-14T06:33:03;10.00;99.90
8856;DHT22;4464;50.882;4.730;2023-03-14T06:35:31;10.10;99.90
8856;DHT22;4464;50.882;4.730;2023-03-14T06:38:00;10.00;99.90
8856;DHT22;4464;50.882;4.730;2023-03-14T06:40:25;10.00;99.90
8856;DHT22;4464;50.882;4.730;2023-03-14T06:42:54;10.00;99.90
8856;DHT22;4464;50.882;4.730;2023-03-14T06:45:19;10.10;99.90
8856;DHT22;4464;50.882;4.730;2023-03-14T06:47:47;10.10;99.90
8856;DHT22;4464;50.882;4.730;2023-03-14T06:50:13;10.10;99.90
8856;DHT22;4464;50.882;4.730;2023-03-14T06:52:44;10.10;99.90
8856;DHT22;4464;50.882;4.730;2023-03-14T06:55:14;10.00;99.90
8856;DHT22;4464;50.882;4.730;2023-03-14T06:57:43;10.10;99.90
8856;DHT22;4464;50.882;4.730;2023-03-14T07:00:11;10.10;99.90
8856;DHT22;4464;50.882;4.730;2023-03-14T07:02:39;10.10;99.90
8856;DHT22;4464;50.882;4.730;2023-03-14T07:05:07;10.10;99.90
8856;DHT22;4464;50.882;4.730;2023-03-14T07:07:33;10.10;99.90
8856;DHT22;4464;50.882;4.730;2023-03-14T07:10:01;10.10;99.90
8856;DHT22;4464;50.882;4.730;2023-03-14T07:12:27;10.10;99.90
8856;DHT22;4464;50.882;4.730;2023-03-14T07:14:52;10.00;99.90
8856;DHT22;4464;50.882;4.730;2023-03-14T07:17:18;9.40;99.90
8856;DHT22;4464;50.882;4.730;2023-03-14T07:19:44;9.10;99.90
8856;DHT22;4464;50.882;4.730;2023-03-14T07:22:14;8.60;99.90
8856;DHT22;4464;50.882;4.730;2023-03-14T07:24:40;8.30;99.90
8856;DHT22;4464;50.882;4.730;2023-03-14T07:27:09;8.20;99.90
8856;DHT22;4464;50.882;4.730;2023-03-14T07:29:34;8.20;99.90
8856;DHT22;4464;50.882;4.730;2023-03-14T07:32:00;8.10;99.90
8856;DHT22;4464;50.882;4.730;2023-03-14T07:34:28;7.90;99.90
8856;DHT22;4464;50.882;4.730;2023-03-14T07:36:54;7.90;99.90
8856;DHT22;4464;50.882;4.730;2023-03-14T07:39:22;7.80;99.90
8856;DHT22;4464;50.882;4.730;2023-03-14T07:41:47;7.80;99.90
8856;DHT22;4464;50.882;4.730;2023-03-14T07:44:13;7.80;99.90
8856;DHT22;4464;50.882;4.730;2023-03-14T07:46:39;7.70;99.90
8856;DHT22;4464;50.882;4.730;2023-03-14T07:49:05;7.70;99.90
8856;DHT22;4464;50.882;4.730;2023-03-14T07:51:31;7.60;99.90
8856;DHT22;4464;50.882;4.730;2023-03-14T07:53:56;7.50;99.90
8856;DHT22;4464;50.882;4.730;2023-03-14T07:56:25;7.60;99.90
8856;DHT22;4464;50.882;4.730;2023-03-14T07:58:50;7.60;99.90
8856;DHT22;4464;50.882;4.730;2023-03-14T08:01:16;7.60;99.90
8856;DHT22;4464;50.882;4.730;2023-03-14T08:03:42;7.60;99.90
8856;DHT22;4464;50.882;4.730;2023-03-14T08:06:10;7.60;99.90
8856;DHT22;4464;50.882;4.730;2023-03-14T08:08:36;7.50;99.90
8856;DHT22;4464;50.882;4.730;2023-03-14T08:11:05;7.60;99.90
8856;DHT22;4464;50.882;4.730;2023-03-14T08:13:35;7.60;99.90
8856;DHT22;4464;50.882;4.730;2023-03-14T08:16:06;7.60;99.90
8856;DHT22;4464;50.882;4.730;2023-03-14T08:18:32;7.60;99.90
8856;DHT22;4464;50.882;4.730;2023-03-14T08:20:58;7.60;99.90
8856;DHT22;4464;50.882;4.730;2023-03-14T08:23:24;7.70;99.90
8856;DHT22;4464;50.882;4.730;2023-03-14T08:25:52;7.80;99.90
8856;DHT22;4464;50.882;4.730;2023-03-14T08:28:18;7.90;99.90
8856;DHT22;4464;50.882;4.730;2023-03-14T08:30:44;7.90;99.90
8856;DHT22;4464;50.882;4.730;2023-03-14T08:33:10;7.80;99.90
8856;DHT22;4464;50.882;4.730;2023-03-14T08:35:39;7.80;99.90
8856;DHT22;4464;50.882;4.730;2023-03-14T08:38:05;7.80;99.90
8856;DHT22;4464;50.882;4.730;2023-03-14T08:40:31;7.80;99.90
8856;DHT22;4464;50.882;4.730;2023-03-14T08:42:57;7.80;99.90
8856;DHT22;4464;50.882;4.730;2023-03-14T08:45:22;7.70;99.90
8856;DHT22;4464;50.882;4.730;2023-03-14T08:47:50;7.70;99.90
8856;DHT22;4464;50.882;4.730;2023-03-14T08:50:18;7.70;99.90
8856;DHT22;4464;50.882;4.730;2023-03-14T08:52:47;7.70;99.90
8856;DHT22;4464;50.882;4.730;2023-03-14T08:55:15;7.70;99.90
8856;DHT22;4464;50.882;4.730;2023-03-14T08:57:43;7.60;99.90
8856;DHT22;4464;50.882;4.730;2023-03-14T09:00:09;7.50;99.90
8856;DHT22;4464;50.882;4.730;2023-03-14T09:02:39;7.50;99.90
8856;DHT22;4464;50.882;4.730;2023-03-14T09:05:06;7.40;99.90
8856;DHT22;4464;50.882;4.730;2023-03-14T09:07:32;7.40;99.90
8856;DHT22;4464;50.882;4.730;2023-03-14T09:09:58;7.40;99.90
8856;DHT22;4464;50.882;4.730;2023-03-14T09:12:26;7.40;99.90
8856;DHT22;4464;50.882;4.730;2023-03-14T09:14:54;7.50;99.90
8856;DHT22;4464;50.882;4.730;2023-03-14T09:17:20;7.60;99.90
8856;DHT22;4464;50.882;4.730;2023-03-14T09:19:46;7.60;99.90
8856;DHT22;4464;50.882;4.730;2023-03-14T09:22:12;7.70;99.90
8856;DHT22;4464;50.882;4.730;2023-03-14T09:24:39;7.70;99.90
8856;DHT22;4464;50.882;4.730;2023-03-14T09:27:07;7.70;99.90
8856;DHT22;4464;50.882;4.730;2023-03-14T09:29:33;7.70;99.90
8856;DHT22;4464;50.882;4.730;2023-03-14T09:31:59;7.70;99.90
8856;DHT22;4464;50.882;4.730;2023-03-14T09:34:25;7.70;99.90
8856;DHT22;4464;50.882;4.730;2023-03-14T09:36:51;7.70;99.90
8856;DHT22;4464;50.882;4.730;2023-03-14T09:39:22;7.60;99.90
8856;DHT22;4464;50.882;4.730;2023-03-14T09:41:49;7.50;99.90
8856;DHT22;4464;50.882;4.730;2023-03-14T09:44:25;7.60;99.90
8856;DHT22;4464;50.882;4.730;2023-03-14T09:46:54;7.50;99.90
8856;DHT22;4464;50.882;4.730;2023-03-14T09:49:39;7.40;99.90
8856;DHT22;4464;50.882;4.730;2023-03-14T09:54:59;7.40;99.90
8856;DHT22;4464;50.882;4.730;2023-03-14T09:57:27;7.40;99.90
8856;DHT22;4464;50.882;4.730;2023-03-14T10:00:15;7.40;99.90
8856;DHT22;4464;50.882;4.730;2023-03-14T10:05:41;7.40;99.90
8856;DHT22;4464;50.882;4.730;2023-03-14T10:08:13;7.40;99.90
8856;DHT22;4464;50.882;4.730;2023-03-14T10:10:39;7.50;99.90
8856;DHT22;4464;50.882;4.730;2023-03-14T10:13:26;7.60;99.90
8856;DHT22;4464;50.882;4.730;2023-03-14T10:16:11;7.70;99.90
8856;DHT22;4464;50.882;4.730;2023-03-14T10:18:44;7.60;99.90
8856;DHT22;4464;50.882;4.730;2023-03-14T10:21:28;7.70;99.90
8856;DHT22;4464;50.882;4.730;2023-03-14T10:23:54;7.60;99.90
8856;DHT22;4464;50.882;4.730;2023-03-14T10:26:27;7.50;99.90
8856;DHT22;4464;50.882;4.730;2023-03-14T10:29:11;7.40;99.90
8856;DHT22;4464;50.882;4.730;2023-03-14T10:34:24;7.20;99.90
8856;DHT22;4464;50.882;4.730;2023-03-14T10:37:14;7.10;99.90
8856;DHT22;4464;50.882;4.730;2023-03-14T10:39:45;6.90;99.90
8856;DHT22;4464;50.882;4.730;2023-03-14T10:42:21;6.90;99.90
8856;DHT22;4464;50.882;4.730;2023-03-14T10:44:55;6.90;99.90
8856;DHT22;4464;50.882;4.730;2023-03-14T10:47:23;6.90;99.90
8856;DHT22;4464;50.882;4.730;2023-03-14T10:49:50;6.80;99.90
8856;DHT22;4464;50.882;4.730;2023-03-14T10:52:20;6.70;99.90
8856;DHT22;4464;50.882;4.730;2023-03-14T10:55:00;6.80;99.90
8856;DHT22;4464;50.882;4.730;2023-03-14T10:57:29;6.70;99.90
8856;DHT22;4464;50.882;4.730;2023-03-14T10:59:56;6.60;99.90
8856;DHT22;4464;50.882;4.730;2023-03-14T11:05:23;6.60;99.90
8856;DHT22;4464;50.882;4.730;2023-03-14T11:08:06;6.70;99.90
8856;DHT22;4464;50.882;4.730;2023-03-14T11:10:35;6.60;99.90
8856;DHT22;4464;50.882;4.730;2023-03-14T11:13:17;6.70;99.90
8856;DHT22;4464;50.882;4.730;2023-03-14T11:28:50;6.30;99.90
8856;DHT22;4464;50.882;4.730;2023-03-14T11:31:29;6.20;99.90
8856;DHT22;4464;50.882;4.730;2023-03-14T11:39:16;6.10;99.90
8856;DHT22;4464;50.882;4.730;2023-03-14T11:41:45;6.20;99.90
8856;DHT22;4464;50.882;4.730;2023-03-14T11:44:34;6.30;99.90
8856;DHT22;4464;50.882;4.730;2023-03-14T11:50:04;6.40;99.90
8856;DHT22;4464;50.882;4.730;2023-03-14T11:52:37;6.50;99.90
8856;DHT22;4464;50.882;4.730;2023-03-14T11:57:48;7.00;99.90
8856;DHT22;4464;50.882;4.730;2023-03-14T12:00:20;7.00;99.90
8856;DHT22;4464;50.882;4.730;2023-03-14T12:08:32;7.20;99.90
8856;DHT22;4464;50.882;4.730;2023-03-14T12:11:31;7.20;99.90
8856;DHT22;4464;50.882;4.730;2023-03-14T12:14:01;7.10;99.90
8856;DHT22;4464;50.882;4.730;2023-03-14T12:16:35;7.20;99.90
8856;DHT22;4464;50.882;4.730;2023-03-14T12:24:46;7.30;99.90
8856;DHT22;4464;50.882;4.730;2023-03-14T12:35:39;7.20;99.90
8856;DHT22;4464;50.882;4.730;2023-03-14T12:38:29;7.00;99.90
8856;DHT22;4464;50.882;4.730;2023-03-14T12:41:15;6.70;99.90
8856;DHT22;4464;50.882;4.730;2023-03-14T12:43:45;6.60;99.90
8856;DHT22;4464;50.882;4.730;2023-03-14T12:49:08;6.40;99.90
8856;DHT22;4464;50.882;4.730;2023-03-14T12:51:43;6.30;99.90
8856;DHT22;4464;50.882;4.730;2023-03-14T12:59:51;6.00;99.90
8856;DHT22;4464;50.882;4.730;2023-03-14T13:11:01;6.10;99.90
8856;DHT22;4464;50.882;4.730;2023-03-14T13:15:44;6.30;99.90
8856;DHT22;4464;50.882;4.730;2023-03-14T13:18:40;6.30;99.90
8856;DHT22;4464;50.882;4.730;2023-03-14T13:21:19;6.40;99.90
8856;DHT22;4464;50.882;4.730;2023-03-14T13:26:43;6.80;99.90
8856;DHT22;4464;50.882;4.730;2023-03-14T13:29:27;6.80;99.90
8856;DHT22;4464;50.882;4.730;2023-03-14T13:31:55;6.70;99.90
8856;DHT22;4464;50.882;4.730;2023-03-14T13:34:34;6.60;99.90
8856;DHT22;4464;50.882;4.730;2023-03-14T13:37:00;6.50;99.90
8856;DHT22;4464;50.882;4.730;2023-03-14T13:39:28;6.40;99.90
8856;DHT22;4464;50.882;4.730;2023-03-14T13:42:03;6.30;99.90
8856;DHT22;4464;50.882;4.730;2023-03-14T13:47:05;5.70;99.90
8856;DHT22;4464;50.882;4.730;2023-03-14T13:49:33;5.50;99.90
8856;DHT22;4464;50.882;4.730;2023-03-14T13:52:20;5.50;99.90
8856;DHT22;4464;50.882;4.730;2023-03-14T13:54:46;5.60;99.90
8856;DHT22;4464;50.882;4.730;2023-03-14T13:57:12;5.70;99.90
8856;DHT22;4464;50.882;4.730;2023-03-14T13:59:42;5.80;99.90
8856;DHT22;4464;50.882;4.730;2023-03-14T14:02:14;6.00;99.90
8856;DHT22;4464;50.882;4.730;2023-03-14T14:04:43;6.20;99.90
8856;DHT22;4464;50.882;4.730;2023-03-14T14:07:13;6.30;99.90
8856;DHT22;4464;50.882;4.730;2023-03-14T14:09:47;6.20;99.90
8856;DHT22;4464;50.882;4.730;2023-03-14T14:12:18;6.00;99.90
8856;DHT22;4464;50.882;4.730;2023-03-14T14:17:22;6.30;99.90
8856;DHT22;4464;50.882;4.730;2023-03-14T14:19:49;6.50;99.90
8856;DHT22;4464;50.882;4.730;2023-03-14T14:22:15;6.60;99.90
8856;DHT22;4464;50.882;4.730;2023-03-14T14:24:44;6.60;99.90
8856;DHT22;4464;50.882;4.730;2023-03-14T14:27:32;6.90;99.90
8856;DHT22;4464;50.882;4.730;2023-03-14T14:32:43;6.70;99.90
8856;DHT22;4464;50.882;4.730;2023-03-14T14:35:33;6.70;99.90
8856;DHT22;4464;50.882;4.730;2023-03-14T14:37:59;6.70;99.90
8856;DHT22;4464;50.882;4.730;2023-03-14T14:40:29;6.90;99.90
8856;DHT22;4464;50.882;4.730;2023-03-14T14:43:02;7.00;99.90
8856;DHT22;4464;50.882;4.730;2023-03-14T14:45:33;7.10;99.90
8856;DHT22;4464;50.882;4.730;2023-03-14T14:48:06;7.00;99.90
8856;DHT22;4464;50.882;4.730;2023-03-14T14:53:25;7.20;99.90
8856;DHT22;4464;50.882;4.730;2023-03-14T14:55:54;7.20;99.90
8856;DHT22;4464;50.882;4.730;2023-03-14T14:58:26;7.20;99.90
8856;DHT22;4464;50.882;4.730;2023-03-14T15:01:10;7.20;99.90
8856;DHT22;4464;50.882;4.730;2023-03-14T15:03:37;7.20;99.90
8856;DHT22;4464;50.882;4.730;2023-03-14T15:06:04;7.00;99.90
8856;DHT22;4464;50.882;4.730;2023-03-14T15:08:30;6.80;99.90
8856;DHT22;4464;50.882;4.730;2023-03-14T15:10:57;6.50;99.90
8856;DHT22;4464;50.882;4.730;2023-03-14T15:13:23;6.30;99.90
8856;DHT22;4464;50.882;4.730;2023-03-14T15:15:52;6.10;99.90
8856;DHT22;4464;50.882;4.730;2023-03-14T15:18:25;6.00;99.90
8856;DHT22;4464;50.882;4.730;2023-03-14T15:20:51;6.00;99.90
8856;DHT22;4464;50.882;4.730;2023-03-14T15:23:19;6.10;99.90
8856;DHT22;4464;50.882;4.730;2023-03-14T15:25:45;6.10;99.90
8856;DHT22;4464;50.882;4.730;2023-03-14T15:28:17;6.20;99.90
8856;DHT22;4464;50.882;4.730;2023-03-14T15:30:50;6.30;99.90
8856;DHT22;4464;50.882;4.730;2023-03-14T15:33:16;6.30;99.90
8856;DHT22;4464;50.882;4.730;2023-03-14T15:35:47;6.40;99.90
8856;DHT22;4464;50.882;4.730;2023-03-14T15:38:18;6.60;99.90
8856;DHT22;4464;50.882;4.730;2023-03-14T15:40:49;6.70;99.90
8856;DHT22;4464;50.882;4.730;2023-03-14T15:43:17;6.60;99.90
8856;DHT22;4464;50.882;4.730;2023-03-14T15:45:44;6.70;99.90
8856;DHT22;4464;50.882;4.730;2023-03-14T15:48:19;6.80;99.90
8856;DHT22;4464;50.882;4.730;2023-03-14T15:50:45;6.80;99.90
8856;DHT22;4464;50.882;4.730;2023-03-14T15:53:11;6.80;99.90
8856;DHT22;4464;50.882;4.730;2023-03-14T15:55:37;6.80;99.90
8856;DHT22;4464;50.882;4.730;2023-03-14T15:58:03;6.80;99.90
8856;DHT22;4464;50.882;4.730;2023-03-14T16:00:29;6.80;99.90
8856;DHT22;4464;50.882;4.730;2023-03-14T16:02:56;6.80;99.90
8856;DHT22;4464;50.882;4.730;2023-03-14T16:05:24;6.70;99.90
8856;DHT22;4464;50.882;4.730;2023-03-14T16:07:49;6.70;99.90
8856;DHT22;4464;50.882;4.730;2023-03-14T16:10:15;6.80;99.90
8856;DHT22;4464;50.882;4.730;2023-03-14T16:12:42;6.80;99.90
8856;DHT22;4464;50.882;4.730;2023-03-14T16:15:09;6.70;99.90
8856;DHT22;4464;50.882;4.730;2023-03-14T16:17:39;6.70;99.90
8856;DHT22;4464;50.882;4.730;2023-03-14T16:20:11;6.70;99.90
8856;DHT22;4464;50.882;4.730;2023-03-14T16:22:37;6.70;99.90
8856;DHT22;4464;50.882;4.730;2023-03-14T16:25:04;6.70;99.90
8856;DHT22;4464;50.882;4.730;2023-03-14T16:27:33;6.70;99.90
8856;DHT22;4464;50.882;4.730;2023-03-14T16:29:58;6.60;99.90
8856;DHT22;4464;50.882;4.730;2023-03-14T16:32:27;6.60;99.90
8856;DHT22;4464;50.882;4.730;2023-03-14T16:34:53;6.60;99.90
8856;DHT22;4464;50.882;4.730;2023-03-14T16:37:19;6.60;99.90
8856;DHT22;4464;50.882;4.730;2023-03-14T16:39:49;6.50;99.90
8856;DHT22;4464;50.882;4.730;2023-03-14T16:42:17;6.50;99.90
8856;DHT22;4464;50.882;4.730;2023-03-14T16:44:46;6.50;99.90
8856;DHT22;4464;50.882;4.730;2023-03-14T16:47:15;6.50;99.90
8856;DHT22;4464;50.882;4.730;2023-03-14T16:49:41;6.50;99.90
8856;DHT22;4464;50.882;4.730;2023-03-14T16:52:06;6.50;99.90
8856;DHT22;4464;50.882;4.730;2023-03-14T16:54:34;6.40;99.90
8856;DHT22;4464;50.882;4.730;2023-03-14T16:57:02;6.40;99.90
8856;DHT22;4464;50.882;4.730;2023-03-14T16:59:30;6.40;99.90
8856;DHT22;4464;50.882;4.730;2023-03-14T17:01:56;6.40;99.90
8856;DHT22;4464;50.882;4.730;2023-03-14T17:04:24;6.40;99.90
8856;DHT22;4464;50.882;4.730;2023-03-14T17:06:50;6.40;99.90
8856;DHT22;4464;50.882;4.730;2023-03-14T17:09:17;6.40;99.90
8856;DHT22;4464;50.882;4.730;2023-03-14T17:11:42;6.40;99.90
8856;DHT22;4464;50.882;4.730;2023-03-14T17:14:08;6.40;99.90
8856;DHT22;4464;50.882;4.730;2023-03-14T17:16:34;6.30;99.90
8856;DHT22;4464;50.882;4.730;2023-03-14T17:19:00;6.30;99.90
8856;DHT22;4464;50.882;4.730;2023-03-14T17:21:26;6.20;99.90
8856;DHT22;4464;50.882;4.730;2023-03-14T17:23:51;6.20;99.90
8856;DHT22;4464;50.882;4.730;2023-03-14T17:26:22;6.20;99.90
8856;DHT22;4464;50.882;4.730;2023-03-14T17:28:50;6.20;99.90
8856;DHT22;4464;50.882;4.730;2023-03-14T17:31:19;6.20;99.90
8856;DHT22;4464;50.882;4.730;2023-03-14T17:33:45;6.20;99.90
8856;DHT22;4464;50.882;4.730;2023-03-14T17:36:11;6.20;99.90
8856;DHT22;4464;50.882;4.730;2023-03-14T17:38:40;6.20;99.90
8856;DHT22;4464;50.882;4.730;2023-03-14T17:41:10;6.10;99.90
8856;DHT22;4464;50.882;4.730;2023-03-14T17:43:37;6.00;99.90
8856;DHT22;4464;50.882;4.730;2023-03-14T17:46:07;6.00;99.90
8856;DHT22;4464;50.882;4.730;2023-03-14T17:48:36;6.00;99.90
8856;DHT22;4464;50.882;4.730;2023-03-14T17:51:03;5.90;99.90
8856;DHT22;4464;50.882;4.730;2023-03-14T17:53:29;5.90;99.90
8856;DHT22;4464;50.882;4.730;2023-03-14T17:55:57;5.80;99.90
8856;DHT22;4464;50.882;4.730;2023-03-14T17:58:26;5.80;99.90
8856;DHT22;4464;50.882;4.730;2023-03-14T18:00:52;5.80;99.90